createdAt,value
2023-01-26T00:03:21.435Z,-1.49
2023-01-26T00:08:26.675Z,-1.43
2023-01-26T00:13:31.710Z,-1.41
2023-01-26T00:18:34.805Z,-1.28
2023-01-26T00:23:38.118Z,-1.55
2023-01-26T00:28:44.943Z,-1.56
2023-01-26T00:33:48.280Z,-1.46
2023-01-26T00:38:51.748Z,-1.63
2023-01-26T00:43:56.537Z,-1.42
2023-01-26T00:49:01.086Z,-1.43
2023-01-26T00:54:04.642Z,-1.68
2023-01-26T00:59:09.527Z,-1.55
2023-01-26T01:04:12.535Z,-1.56
2023-01-26T01:09:16.077Z,-1.60
2023-01-26T01:14:20.992Z,-1.67
2023-01-26T01:19:24.553Z,-1.96
2023-01-26T01:24:28.076Z,-1.99
2023-01-26T01:29:35.267Z,-1.84
2023-01-26T01:34:38.751Z,-2.01
2023-01-26T01:39:42.315Z,-2.01
2023-01-26T01:45:08.662Z,-1.60
2023-01-26T01:50:19.150Z,-1.68
2023-01-26T01:55:22.603Z,-1.61
2023-01-26T02:00:28.646Z,-1.72
2023-01-26T02:05:37.264Z,-1.89
2023-01-26T02:10:53.772Z,-1.85
2023-01-26T02:16:00.964Z,-1.57
2023-01-26T02:21:07.788Z,-1.60
2023-01-26T02:26:15.690Z,-1.38
2023-01-26T02:31:20.375Z,-1.55
2023-01-26T02:36:25.020Z,-1.46
2023-01-26T02:41:47.131Z,-1.56
2023-01-26T02:46:50.483Z,-1.68
2023-01-26T02:51:53.999Z,-1.46
2023-01-26T02:57:00.967Z,-1.51
2023-01-26T03:02:04.492Z,-1.64
2023-01-26T03:07:07.853Z,-1.81
2023-01-26T03:12:13.245Z,-1.49
2023-01-26T03:17:16.651Z,-1.36
2023-01-26T03:22:37.267Z,-1.22
2023-01-26T03:27:44.935Z,-1.21
2023-01-26T03:32:48.239Z,-1.30
2023-01-26T03:37:55.237Z,-1.39
2023-01-26T03:43:17.398Z,-1.30
2023-01-26T03:48:37.848Z,-1.47
2023-01-26T03:53:58.727Z,-1.43
2023-01-26T03:59:09.337Z,-1.39
2023-01-26T04:04:30.292Z,-1.35
2023-01-26T04:09:34.368Z,-1.37
2023-01-26T04:14:56.583Z,-1.35
2023-01-26T04:20:17.260Z,-1.43
2023-01-26T04:25:23.072Z,-1.36
2023-01-26T04:30:27.945Z,-1.18
2023-01-26T04:35:31.080Z,-1.47
2023-01-26T04:40:34.350Z,-1.46
2023-01-26T04:45:39.269Z,-1.29
2023-01-26T04:50:42.599Z,-1.08
2023-01-26T04:55:45.948Z,-1.08
2023-01-26T05:00:54.316Z,-0.99
2023-01-26T05:05:57.679Z,-1.11
2023-01-26T05:11:02.124Z,-1.09
2023-01-26T05:16:08.008Z,-0.91
2023-01-26T05:21:12.187Z,-1.12
2023-01-26T05:26:15.492Z,-1.09
2023-01-26T05:31:20.437Z,-1.10
2023-01-26T05:36:23.819Z,-1.15
2023-01-26T05:41:27.134Z,-1.25
2023-01-26T05:46:32.043Z,-1.18
2023-01-26T05:51:35.068Z,-1.07
2023-01-26T05:56:38.345Z,-1.10
2023-01-26T06:01:43.178Z,-0.91
2023-01-26T06:06:46.276Z,-0.96
2023-01-26T06:11:49.760Z,-1.15
2023-01-26T06:16:55.082Z,-1.08
2023-01-26T06:21:58.454Z,-1.14
2023-01-26T06:27:02.395Z,-1.10
2023-01-26T06:32:07.721Z,-1.02
2023-01-26T06:37:11.548Z,-1.06
2023-01-26T06:42:15.093Z,-0.76
2023-01-26T06:47:19.922Z,-0.58
2023-01-26T06:52:32.484Z,-0.73
2023-01-26T06:57:36.051Z,-0.86
2023-01-26T07:02:41.830Z,-0.76
2023-01-26T07:07:45.380Z,-0.75
2023-01-26T07:12:48.709Z,-0.53
2023-01-26T07:17:54.865Z,-0.46
2023-01-26T07:23:00.535Z,-0.39
2023-01-26T07:28:04.045Z,-0.43
2023-01-26T07:33:10.108Z,-0.27
2023-01-26T07:38:13.458Z,-0.14
2023-01-26T07:43:17.269Z,-0.22
2023-01-26T07:48:24.382Z,-0.22
2023-01-26T07:53:31.004Z,-0.22
2023-01-26T07:58:36.319Z,-0.31
2023-01-26T08:03:42.059Z,-0.01
2023-01-26T08:08:45.721Z,0.05
2023-01-26T08:13:49.503Z,-0.08
2023-01-26T08:18:54.392Z,0.28
2023-01-26T08:24:02.120Z,0.35
2023-01-26T08:29:05.838Z,0.23
2023-01-26T08:34:10.847Z,0.30
2023-01-26T08:39:14.484Z,0.51
2023-01-26T08:44:18.264Z,0.77
2023-01-26T08:49:23.371Z,0.80
2023-01-26T08:54:26.879Z,0.65
2023-01-26T08:59:30.311Z,0.52
2023-01-26T09:04:35.152Z,0.56
2023-01-26T09:09:38.639Z,0.24
2023-01-26T09:14:42.504Z,0.33
2023-01-26T09:19:47.422Z,0.20
2023-01-26T09:24:50.685Z,0.30
2023-01-26T09:29:54.257Z,0.34
2023-01-26T09:34:59.236Z,0.31
2023-01-26T09:40:02.907Z,0.31
2023-01-26T09:45:23.162Z,0.11
2023-01-26T09:50:32.592Z,0.37
2023-01-26T09:55:36.213Z,0.20
2023-01-26T10:00:43.500Z,0.17
2023-01-26T10:05:53.672Z,-0.01
2023-01-26T10:11:02.144Z,-0.17
2023-01-26T10:16:11.727Z,-0.14
2023-01-26T10:21:22.569Z,-0.11
2023-01-26T10:26:26.214Z,0.04
2023-01-26T10:31:33.974Z,-0.18
2023-01-26T10:36:39.649Z,-0.32
2023-01-26T10:41:56.875Z,-0.01
2023-01-26T10:47:08.318Z,-0.03
2023-01-26T10:52:19.325Z,0.19
2023-01-26T10:57:29.348Z,0.34
2023-01-26T11:02:33.671Z,0.14
2023-01-26T11:07:40.479Z,0.39
2023-01-26T11:12:44.594Z,0.21
2023-01-26T11:17:58.149Z,0.13
2023-01-26T11:23:10.303Z,0.27
2023-01-26T11:28:33.268Z,0.44
2023-01-26T11:33:44.530Z,0.27
2023-01-26T11:38:56.669Z,-0.05
2023-01-26T11:44:24.932Z,0.17
2023-01-26T11:49:46.512Z,-0.03
2023-01-26T11:55:06.654Z,-0.04
2023-01-26T12:00:29.538Z,0.06
2023-01-26T12:05:44.694Z,-0.14
2023-01-26T12:10:59.220Z,-0.17
2023-01-26T12:16:10.080Z,0.01
2023-01-26T12:21:13.930Z,0.12
2023-01-26T12:26:22.594Z,0.00
2023-01-26T12:31:33.581Z,0.24
2023-01-26T12:36:47.472Z,0.37
2023-01-26T12:42:17.624Z,0.26
2023-01-26T12:47:28.336Z,0.21
2023-01-26T12:52:37.531Z,0.21
2023-01-26T12:57:49.144Z,0.26
2023-01-26T13:02:57.667Z,0.42
2023-01-26T13:08:39.914Z,0.44
2023-01-26T13:13:56.575Z,0.06
2023-01-26T13:19:01.387Z,0.11
2023-01-26T13:24:30.936Z,0.19
2023-01-26T13:29:36.979Z,0.14
2023-01-26T13:34:44.205Z,0.15
2023-01-26T13:39:53.431Z,0.07
2023-01-26T13:45:02.434Z,0.12
2023-01-26T13:50:25.299Z,0.17
2023-01-26T13:55:32.546Z,-0.04
2023-01-26T14:00:37.540Z,0.10
2023-01-26T14:05:42.151Z,0.10
2023-01-26T14:10:45.762Z,-0.06
2023-01-26T14:15:58.014Z,0.18
2023-01-26T14:21:04.333Z,0.07
2023-01-26T14:26:16.886Z,0.30
2023-01-26T14:31:24.470Z,0.10
2023-01-26T14:36:29.585Z,0.11
2023-01-26T14:41:37.349Z,0.09
2023-01-26T14:46:52.379Z,0.16
2023-01-26T14:51:56.933Z,-0.05
2023-01-26T14:57:01.925Z,-0.07
2023-01-26T15:02:17.227Z,-0.06
2023-01-26T15:07:39.453Z,-0.01
2023-01-26T15:12:43.451Z,0.09
2023-01-26T15:17:50.702Z,0.16
2023-01-26T15:22:55.435Z,-0.04
2023-01-26T15:28:01.303Z,-0.06
2023-01-26T15:33:06.403Z,-0.23
2023-01-26T15:38:12.092Z,-0.08
2023-01-26T15:43:16.684Z,-0.22
2023-01-26T15:48:22.219Z,-0.10
2023-01-26T15:53:25.629Z,-0.17
2023-01-26T15:58:32.102Z,0.00
2023-01-26T16:03:36.896Z,0.10
2023-01-26T16:08:40.397Z,0.03
2023-01-26T16:13:53.964Z,-0.15
2023-01-26T16:19:08.912Z,-0.03
2023-01-26T16:24:12.767Z,-0.03
2023-01-26T16:29:16.143Z,0.13
2023-01-26T16:34:20.960Z,-0.09
2023-01-26T16:39:24.544Z,0.05
2023-01-26T16:44:27.861Z,0.09
2023-01-26T16:49:34.290Z,0.30
2023-01-26T16:54:38.101Z,0.13
2023-01-26T16:59:41.730Z,0.21
2023-01-26T17:04:46.619Z,0.13
2023-01-26T17:09:49.955Z,0.17
2023-01-26T17:14:53.447Z,0.09
2023-01-26T17:20:09.243Z,0.17
2023-01-26T17:25:21.178Z,0.03
2023-01-26T17:30:24.697Z,0.02
2023-01-26T17:35:29.646Z,0.14
2023-01-26T17:40:32.682Z,-0.02
2023-01-26T17:45:36.138Z,-0.11
2023-01-26T17:50:40.882Z,-0.28
2023-01-26T17:55:44.756Z,-0.06
2023-01-26T18:00:48.125Z,-0.13
2023-01-26T18:05:53.851Z,-0.02
2023-01-26T18:11:01.931Z,0.02
2023-01-26T18:16:07.610Z,-0.12
2023-01-26T18:21:17.392Z,0.03
2023-01-26T18:26:22.990Z,-0.08
2023-01-26T18:31:28.608Z,-0.14
2023-01-26T18:36:33.740Z,-0.24
2023-01-26T18:41:38.153Z,-0.32
2023-01-26T18:46:41.632Z,-0.30
2023-01-26T18:51:48.319Z,-0.20
2023-01-26T18:56:51.752Z,-0.17
2023-01-26T19:01:55.543Z,-0.04
2023-01-26T19:07:00.536Z,-0.08
2023-01-26T19:12:04.185Z,-0.22
2023-01-26T19:17:07.760Z,-0.19
2023-01-26T19:22:12.656Z,-0.14
2023-01-26T19:27:15.873Z,-0.10
2023-01-26T19:32:19.504Z,-0.20
2023-01-26T19:37:26.347Z,-0.17
2023-01-26T19:42:29.704Z,-0.31
2023-01-26T19:47:35.570Z,-0.36
2023-01-26T19:52:40.383Z,-0.33
2023-01-26T19:57:43.583Z,-0.24
2023-01-26T20:02:48.417Z,-0.33
2023-01-26T20:07:52.918Z,-0.24
2023-01-26T20:12:57.604Z,-0.51
2023-01-26T20:18:00.976Z,-0.27
2023-01-26T20:23:07.631Z,-0.27
2023-01-26T20:28:11.225Z,-0.26
2023-01-26T20:33:14.884Z,-0.30
2023-01-26T20:38:19.676Z,-0.26
2023-01-26T20:43:22.996Z,-0.35
2023-01-26T20:48:26.854Z,-0.27
2023-01-26T20:53:32.428Z,-0.08
2023-01-26T20:58:38.242Z,-0.21
2023-01-26T21:03:42.456Z,-0.34
2023-01-26T21:08:47.508Z,-0.49
2023-01-26T21:13:52.191Z,-0.51
2023-01-26T21:18:56.034Z,-0.40
2023-01-26T21:24:01.016Z,-0.19
2023-01-26T21:29:05.722Z,-0.14
2023-01-26T21:34:11.126Z,-0.06
2023-01-26T21:39:16.151Z,-0.28
2023-01-26T21:44:21.138Z,-0.19
2023-01-26T21:49:25.835Z,-0.03
2023-01-26T21:54:31.972Z,-0.01
2023-01-26T21:59:35.295Z,-0.04
2023-01-26T22:04:38.603Z,-0.03
2023-01-26T22:09:43.570Z,-0.05
2023-01-26T22:14:46.595Z,-0.01
2023-01-26T22:19:56.586Z,-0.03
2023-01-26T22:25:01.488Z,-0.14
2023-01-26T22:30:05.826Z,-0.22
2023-01-26T22:35:10.121Z,-0.34
2023-01-26T22:40:16.816Z,-0.48
2023-01-26T22:45:20.839Z,-0.45
2023-01-26T22:50:24.331Z,-0.47
2023-01-26T22:55:29.088Z,-0.45
2023-01-26T23:00:33.440Z,-0.60
2023-01-26T23:05:37.036Z,-0.53
2023-01-26T23:10:41.936Z,-0.44
2023-01-26T23:15:44.951Z,-0.51
2023-01-26T23:20:48.850Z,-0.57
2023-01-26T23:25:54.172Z,-0.50
2023-01-26T23:30:59.031Z,-0.44
2023-01-26T23:36:02.470Z,-0.44
2023-01-26T23:41:09.872Z,-0.52
2023-01-26T23:46:13.762Z,-0.43
2023-01-26T23:51:17.240Z,-0.35
2023-01-26T23:56:21.956Z,-0.38
